PWSweather.com
Personal Weather Stations
Station Observations

SkegnessGB

Lat: 53.147585, Lon: 0.345774

Elevation: 18

Station Type: Fine Offset WH3080

http://www.skegnessweather.info/

Latest ConditionsUpdated 10:30:00 PM GMT Sunday, Jan 20, 2019
Currently Today's Max Today's Min Today's Average
Temperature 35.6°F2.0°C 41.4°F5.2°C 25.2°F-3.8°C 33.6°F0.9°C
Dew Point 28.8°F-1.8°C 36.4°F2.4°C 19.9°F-6.7°C 26.7°F-2.9°C
Winds 1.1 mph SW1.8 kmh SW 2.5 mph -4.0 kmh - - 0.4 mph 0.6 kmh
Wind Gusts 2.5 mph4.0 kmh 3.4 mph5.5 kmh - -
Humidity 76% 84% 64% 76%
Pressure 30.16 in1021.3 mb 30.16 in1021.3 mb 29.86 in1011.2 mb -
Hour Temp Dew Point Humidity Winds Wind Gusts Pressure Precip Precip Rate Daily Precip Total
10:30 PM 35.6°F2.0°C 28.8°F-1.8°C 76% 1.1 mph SW1.8 kmh SW 2.5 mph4.0 kmh 30.16 in1021.3 mb 0.00 in0.0 mm 0.00 in0.0 mm 0.00 in0.0 mm
10:20 PM 35.6°F2.0°C 28.8°F-1.8°C 76% 1.5 mph WSW2.4 kmh WSW 3.4 mph5.5 kmh 30.16 in1021.3 mb 0.00 in0.0 mm 0.00 in0.0 mm 0.00 in0.0 mm
10:10 PM 35.4°F1.9°C 28.6°F-1.9°C 76% 0.5 mph N0.8 kmh N 2.5 mph4.0 kmh 30.16 in1021.3 mb 0.00 in0.0 mm 0.00 in0.0 mm 0.00 in0.0 mm
10:00 PM 35.4°F1.9°C 28.3°F-2.1°C 75% 1.4 mph SW2.3 kmh SW 3.4 mph5.5 kmh 30.16 in1021.3 mb 0.00 in0.0 mm 0.00 in0.0 mm 0.00 in0.0 mm
09:50 PM 35.4°F1.9°C 28.3°F-2.1°C 75% 0.9 mph SW1.4 kmh SW 1.7 mph2.7 kmh 30.16 in1021.3 mb 0.00 in0.0 mm 0.00 in0.0 mm 0.00 in0.0 mm
09:40 PM 35.4°F1.9°C 28.3°F-2.1°C 75% 1.2 mph SW1.9 kmh SW 2.5 mph4.0 kmh 30.15 in1021.0 mb 0.00 in0.0 mm 0.00 in0.0 mm 0.00 in0.0 mm
09:30 PM 35.6°F2.0°C 28.5°F-1.9°C 75% 1.1 mph SW1.8 kmh SW 1.7 mph2.7 kmh 30.16 in1021.3 mb 0.00 in0.0 mm 0.00 in0.0 mm 0.00 in0.0 mm
09:20 PM 35.6°F2.0°C 28.8°F-1.8°C 76% 1.9 mph S3.1 kmh S 3.4 mph5.5 kmh 30.15 in1021.0 mb 0.00 in0.0 mm 0.00 in0.0 mm 0.00 in0.0 mm
09:10 PM 35.6°F2.0°C 28.8°F-1.8°C 76% 1.4 mph SSW2.3 kmh SSW 2.5 mph4.0 kmh 30.15 in1021.0 mb 0.00 in0.0 mm 0.00 in0.0 mm 0.00 in0.0 mm
09:00 PM 35.4°F1.9°C 28.3°F-2.1°C 75% 1.1 mph SSW1.8 kmh SSW 2.5 mph4.0 kmh 30.15 in1021.0 mb 0.00 in0.0 mm 0.00 in0.0 mm 0.00 in0.0 mm
08:50 PM 35.2°F1.8°C 28.1°F-2.2°C 75% 1.4 mph SW2.3 kmh SW 2.5 mph4.0 kmh 30.15 in1021.0 mb 0.00 in0.0 mm 0.00 in0.0 mm 0.00 in0.0 mm
08:40 PM 35.2°F1.8°C 28.1°F-2.2°C 75% 0.7 mph WSW1.1 kmh WSW 2.5 mph4.0 kmh 30.14 in1020.7 mb 0.00 in0.0 mm 0.00 in0.0 mm 0.00 in0.0 mm
08:30 PM 35.4°F1.9°C 28.6°F-1.9°C 76% 0.7 mph WSW1.1 kmh WSW 1.7 mph2.7 kmh 30.14 in1020.7 mb 0.00 in0.0 mm 0.00 in0.0 mm 0.00 in0.0 mm
08:20 PM 35.4°F1.9°C 28.6°F-1.9°C 76% 0.5 mph SW0.8 kmh SW 2.5 mph4.0 kmh 30.14 in1020.7 mb 0.00 in0.0 mm 0.00 in0.0 mm 0.00 in0.0 mm
08:10 PM 35.2°F1.8°C 28.4°F-2.0°C 76% 0.9 mph WSW1.4 kmh WSW 2.5 mph4.0 kmh 30.14 in1020.7 mb 0.00 in0.0 mm 0.00 in0.0 mm 0.00 in0.0 mm
08:00 PM 35.2°F1.8°C 28.4°F-2.0°C 76% 1.3 mph WSW2.1 kmh WSW 2.5 mph4.0 kmh 30.14 in1020.7 mb 0.00 in0.0 mm 0.00 in0.0 mm 0.00 in0.0 mm
07:50 PM 35.1°F1.7°C 28.6°F-1.9°C 77% 0.2 mph WSW0.3 kmh WSW 1.7 mph2.7 kmh 30.13 in1020.3 mb 0.00 in0.0 mm 0.00 in0.0 mm 0.00 in0.0 mm
07:40 PM 34.9°F1.6°C 28.4°F-2.0°C 77% 0.4 mph SW0.6 kmh SW 1.7 mph2.7 kmh 30.13 in1020.3 mb 0.00 in0.0 mm 0.00 in0.0 mm 0.00 in0.0 mm
07:30 PM 34.9°F1.6°C 28.4°F-2.0°C 77% 0.7 mph WSW1.1 kmh WSW 2.5 mph4.0 kmh 30.13 in1020.3 mb 0.00 in0.0 mm 0.00 in0.0 mm 0.00 in0.0 mm
07:20 PM 34.5°F1.4°C 28.1°F-2.2°C 77% 1.1 mph SSW1.8 kmh SSW 2.5 mph4.0 kmh 30.12 in1020.0 mb 0.00 in0.0 mm 0.00 in0.0 mm 0.00 in0.0 mm
07:10 PM 34.2°F1.2°C 27.7°F-2.4°C 77% 1.0 mph S1.6 kmh S 0.7 mph1.1 kmh 30.12 in1020.0 mb 0.00 in0.0 mm 0.00 in0.0 mm 0.00 in0.0 mm
07:00 PM 34.0°F1.1°C 27.2°F-2.7°C 76% 0.1 mph S0.2 kmh S 0.7 mph1.1 kmh 30.12 in1020.0 mb 0.00 in0.0 mm 0.00 in0.0 mm 0.00 in0.0 mm
06:50 PM 33.8°F1.0°C 26.7°F-2.9°C 75% 0.2 mph WSW0.3 kmh WSW 1.7 mph2.7 kmh 30.11 in1019.6 mb 0.00 in0.0 mm 0.00 in0.0 mm 0.00 in0.0 mm
06:40 PM 33.4°F0.8°C 26.4°F-3.1°C 75% 0.1 mph SSW0.2 kmh SSW 1.7 mph2.7 kmh 30.11 in1019.6 mb 0.00 in0.0 mm 0.00 in0.0 mm 0.00 in0.0 mm
06:30 PM 33.3°F0.7°C 25.9°F-3.4°C 74% 0.4 mph SSW0.6 kmh SSW 1.7 mph2.7 kmh 30.11 in1019.6 mb 0.00 in0.0 mm 0.00 in0.0 mm 0.00 in0.0 mm
06:20 PM 33.3°F0.7°C 25.5°F-3.6°C 73% 0.2 mph SSE0.3 kmh SSE 1.7 mph2.7 kmh 30.11 in1019.6 mb 0.00 in0.0 mm 0.00 in0.0 mm 0.00 in0.0 mm
06:10 PM 33.3°F0.7°C 25.5°F-3.6°C 73% Calm Calm 0.7 mph1.1 kmh 30.11 in1019.6 mb 0.00 in0.0 mm 0.00 in0.0 mm 0.00 in0.0 mm
06:00 PM 33.4°F0.8°C 25.4°F-3.7°C 72% Calm Calm 0.7 mph1.1 kmh 30.11 in1019.6 mb 0.00 in0.0 mm 0.00 in0.0 mm 0.00 in0.0 mm
05:50 PM 33.6°F0.9°C 25.2°F-3.8°C 71% Calm Calm 0.7 mph1.1 kmh 30.10 in1019.3 mb 0.00 in0.0 mm 0.00 in0.0 mm 0.00 in0.0 mm
05:40 PM 33.8°F1.0°C 25.4°F-3.7°C 71% Calm Calm 0.7 mph1.1 kmh 30.10 in1019.3 mb 0.00 in0.0 mm 0.00 in0.0 mm 0.00 in0.0 mm
05:30 PM 34.2°F1.2°C 25.4°F-3.7°C 70% 0.1 mph SSE0.2 kmh SSE 0.7 mph1.1 kmh 30.10 in1019.3 mb 0.00 in0.0 mm 0.00 in0.0 mm 0.00 in0.0 mm
05:20 PM 34.3°F1.3°C 25.6°F-3.6°C 70% Calm Calm -- 30.10 in1019.3 mb 0.00 in0.0 mm 0.00 in0.0 mm 0.00 in0.0 mm
05:10 PM 35.2°F1.8°C 26.1°F-3.3°C 69% Calm Calm -- 30.09 in1019.0 mb 0.00 in0.0 mm 0.00 in0.0 mm 0.00 in0.0 mm
05:00 PM 36.0°F2.2°C 26.8°F-2.9°C 69% 0.2 mph SW0.3 kmh SW 1.7 mph2.7 kmh 30.09 in1019.0 mb 0.00 in0.0 mm 0.00 in0.0 mm 0.00 in0.0 mm
04:50 PM 36.5°F2.5°C 26.9°F-2.8°C 68% 0.3 mph W0.5 kmh W 1.7 mph2.7 kmh 30.08 in1018.6 mb 0.00 in0.0 mm 0.00 in0.0 mm 0.00 in0.0 mm
04:40 PM 37.2°F2.9°C 27.3°F-2.6°C 67% 0.3 mph W0.5 kmh W 1.7 mph2.7 kmh 30.09 in1019.0 mb 0.00 in0.0 mm 0.00 in0.0 mm 0.00 in0.0 mm
04:30 PM 37.9°F3.3°C 28.0°F-2.2°C 67% 0.1 mph SW0.2 kmh SW 1.7 mph2.7 kmh 30.08 in1018.6 mb 0.00 in0.0 mm 0.00 in0.0 mm 0.00 in0.0 mm
04:20 PM 38.7°F3.7°C 28.6°F-1.9°C 67% 0.3 mph SW0.5 kmh SW 1.7 mph2.7 kmh 30.08 in1018.6 mb 0.00 in0.0 mm 0.00 in0.0 mm 0.00 in0.0 mm
04:10 PM 39.2°F4.0°C 28.8°F-1.8°C 66% 0.8 mph WSW1.3 kmh WSW 1.7 mph2.7 kmh 30.08 in1018.6 mb 0.00 in0.0 mm 0.00 in0.0 mm 0.00 in0.0 mm
04:00 PM 39.4°F4.1°C 29.0°F-1.7°C 66% 1.2 mph WNW1.9 kmh WNW 2.5 mph4.0 kmh 30.08 in1018.6 mb 0.00 in0.0 mm 0.00 in0.0 mm 0.00 in0.0 mm
03:50 PM 39.4°F4.1°C 29.0°F-1.7°C 66% 0.7 mph SW1.1 kmh SW 1.7 mph2.7 kmh 30.07 in1018.3 mb 0.00 in0.0 mm 0.00 in0.0 mm 0.00 in0.0 mm
03:40 PM 39.2°F4.0°C 28.8°F-1.8°C 66% 0.6 mph W1.0 kmh W 1.7 mph2.7 kmh 30.07 in1018.3 mb 0.00 in0.0 mm 0.00 in0.0 mm 0.00 in0.0 mm
03:30 PM 38.8°F3.8°C 28.4°F-2.0°C 66% 0.4 mph W0.6 kmh W 1.7 mph2.7 kmh 30.06 in1017.9 mb 0.00 in0.0 mm 0.00 in0.0 mm 0.00 in0.0 mm
03:20 PM 38.5°F3.6°C 27.7°F-2.4°C 65% 0.7 mph WNW1.1 kmh WNW 1.7 mph2.7 kmh 30.06 in1017.9 mb 0.00 in0.0 mm 0.00 in0.0 mm 0.00 in0.0 mm
03:10 PM 38.7°F3.7°C 27.9°F-2.3°C 65% Calm Calm 0.7 mph1.1 kmh 30.06 in1017.9 mb 0.00 in0.0 mm 0.00 in0.0 mm 0.00 in0.0 mm
03:00 PM 39.2°F4.0°C 28.4°F-2.0°C 65% 0.4 mph N0.6 kmh N 1.7 mph2.7 kmh 30.05 in1017.6 mb 0.00 in0.0 mm 0.00 in0.0 mm 0.00 in0.0 mm
02:50 PM 39.2°F4.0°C 28.4°F-2.0°C 65% 0.4 mph NNW0.6 kmh NNW 1.7 mph2.7 kmh 30.04 in1017.3 mb 0.00 in0.0 mm 0.00 in0.0 mm 0.00 in0.0 mm
02:40 PM 39.2°F4.0°C 28.0°F-2.2°C 64% 0.1 mph NNE0.2 kmh NNE 1.7 mph2.7 kmh 30.04 in1017.3 mb 0.00 in0.0 mm 0.00 in0.0 mm 0.00 in0.0 mm
02:30 PM 39.4°F4.1°C 28.2°F-2.1°C 64% 0.6 mph N1.0 kmh N 1.7 mph2.7 kmh 30.04 in1017.3 mb 0.00 in0.0 mm 0.00 in0.0 mm 0.00 in0.0 mm
02:20 PM 39.6°F4.2°C 28.4°F-2.0°C 64% 0.2 mph N0.3 kmh N 2.5 mph4.0 kmh 30.04 in1017.3 mb 0.00 in0.0 mm 0.00 in0.0 mm 0.00 in0.0 mm
02:10 PM 39.7°F4.3°C 28.5°F-1.9°C 64% 1.3 mph NNE2.1 kmh NNE 2.5 mph4.0 kmh 30.04 in1017.3 mb 0.00 in0.0 mm 0.00 in0.0 mm 0.00 in0.0 mm
02:00 PM 39.9°F4.4°C 29.5°F-1.4°C 66% 0.2 mph N0.3 kmh N 1.7 mph2.7 kmh 30.04 in1017.3 mb 0.00 in0.0 mm 0.00 in0.0 mm 0.00 in0.0 mm
01:50 PM 39.9°F4.4°C 29.5°F-1.4°C 66% 0.5 mph WNW0.8 kmh WNW 2.5 mph4.0 kmh 30.03 in1016.9 mb 0.00 in0.0 mm 0.00 in0.0 mm 0.00 in0.0 mm
01:40 PM 40.1°F4.5°C 30.0°F-1.1°C 67% 1.2 mph W1.9 kmh W 2.5 mph4.0 kmh 30.03 in1016.9 mb 0.00 in0.0 mm 0.00 in0.0 mm 0.00 in0.0 mm
01:30 PM 40.1°F4.5°C 30.0°F-1.1°C 67% 0.2 mph NW0.3 kmh NW 2.5 mph4.0 kmh 30.03 in1016.9 mb 0.00 in0.0 mm 0.00 in0.0 mm 0.00 in0.0 mm
01:20 PM 40.1°F4.5°C 30.4°F-0.9°C 68% 0.3 mph NW0.5 kmh NW 1.7 mph2.7 kmh 30.03 in1016.9 mb 0.00 in0.0 mm 0.00 in0.0 mm 0.00 in0.0 mm
01:10 PM 40.1°F4.5°C 31.1°F-0.5°C 70% 1.4 mph SW2.3 kmh SW 2.5 mph4.0 kmh 30.03 in1016.9 mb 0.00 in0.0 mm 0.00 in0.0 mm 0.00 in0.0 mm
01:00 PM 40.3°F4.6°C 31.3°F-0.4°C 70% 1.9 mph SSW3.1 kmh SSW 3.4 mph5.5 kmh 30.03 in1016.9 mb 0.00 in0.0 mm 0.00 in0.0 mm 0.00 in0.0 mm
12:50 PM 40.5°F4.7°C 32.5°F0.3°C 73% 2.0 mph WSW3.2 kmh WSW 3.4 mph5.5 kmh 30.03 in1016.9 mb 0.00 in0.0 mm 0.00 in0.0 mm 0.00 in0.0 mm
12:40 PM 41.0°F5.0°C 34.3°F1.3°C 77% 0.9 mph W1.4 kmh W 2.5 mph4.0 kmh 30.03 in1016.9 mb 0.00 in0.0 mm 0.00 in0.0 mm 0.00 in0.0 mm
12:30 PM 41.4°F5.2°C 36.0°F2.2°C 81% 0.7 mph W1.1 kmh W 1.7 mph2.7 kmh 30.03 in1016.9 mb 0.00 in0.0 mm 0.00 in0.0 mm 0.00 in0.0 mm
12:20 PM 41.2°F5.1°C 36.4°F2.4°C 83% 1.4 mph WSW2.3 kmh WSW 3.4 mph5.5 kmh 30.02 in1016.6 mb 0.00 in0.0 mm 0.00 in0.0 mm 0.00 in0.0 mm
12:10 PM 40.8°F4.9°C 36.4°F2.4°C 84% 1.2 mph SW1.9 kmh SW 2.5 mph4.0 kmh 30.03 in1016.9 mb 0.00 in0.0 mm 0.00 in0.0 mm 0.00 in0.0 mm
12:00 PM 39.9°F4.4°C 35.5°F1.9°C 84% 0.1 mph WNW0.2 kmh WNW 1.7 mph2.7 kmh 30.03 in1016.9 mb 0.00 in0.0 mm 0.00 in0.0 mm 0.00 in0.0 mm
11:50 AM 38.7°F3.7°C 34.2°F1.2°C 84% 0.1 mph WSW0.2 kmh WSW 1.7 mph2.7 kmh 30.02 in1016.6 mb 0.00 in0.0 mm 0.00 in0.0 mm 0.00 in0.0 mm
11:40 AM 37.2°F2.9°C 32.8°F0.4°C 84% 0.1 mph SE0.2 kmh SE 1.7 mph2.7 kmh 30.02 in1016.6 mb 0.00 in0.0 mm 0.00 in0.0 mm 0.00 in0.0 mm
11:30 AM 36.9°F2.7°C 32.5°F0.3°C 84% 0.6 mph WSW1.0 kmh WSW 1.7 mph2.7 kmh 30.02 in1016.6 mb 0.00 in0.0 mm 0.00 in0.0 mm 0.00 in0.0 mm
11:20 AM 36.1°F2.3°C 31.8°F-0.1°C 84% Calm Calm 0.7 mph1.1 kmh 30.02 in1016.6 mb 0.00 in0.0 mm 0.00 in0.0 mm 0.00 in0.0 mm
11:10 AM 35.6°F2.0°C 31.2°F-0.4°C 84% Calm Calm 0.7 mph1.1 kmh 30.02 in1016.6 mb 0.00 in0.0 mm 0.00 in0.0 mm 0.00 in0.0 mm
11:00 AM 35.6°F2.0°C 31.2°F-0.4°C 84% Calm Calm -- 30.02 in1016.6 mb 0.00 in0.0 mm 0.00 in0.0 mm 0.00 in0.0 mm
10:50 AM 35.2°F1.8°C 30.6°F-0.8°C 83% Calm Calm -- 30.02 in1016.6 mb 0.00 in0.0 mm 0.00 in0.0 mm 0.00 in0.0 mm
10:40 AM 33.8°F1.0°C 29.2°F-1.6°C 83% Calm Calm 0.7 mph1.1 kmh 30.01 in1016.3 mb 0.00 in0.0 mm 0.00 in0.0 mm 0.00 in0.0 mm
10:30 AM 32.9°F0.5°C 28.0°F-2.2°C 82% Calm Calm 0.7 mph1.1 kmh 30.01 in1016.3 mb 0.00 in0.0 mm 0.00 in0.0 mm 0.00 in0.0 mm
10:20 AM 32.0°F0.0°C 27.1°F-2.7°C 82% Calm Calm -- 30.01 in1016.3 mb 0.00 in0.0 mm 0.00 in0.0 mm 0.00 in0.0 mm
10:10 AM 31.1°F-0.5°C 26.2°F-3.2°C 82% Calm Calm -- 30.01 in1016.3 mb 0.00 in0.0 mm 0.00 in0.0 mm 0.00 in0.0 mm
10:00 AM 30.4°F-0.9°C 25.5°F-3.6°C 82% Calm Calm -- 30.01 in1016.3 mb 0.00 in0.0 mm 0.00 in0.0 mm 0.00 in0.0 mm
09:50 AM 29.8°F-1.2°C 24.7°F-4.1°C 81% Calm Calm 0.7 mph1.1 kmh 30.00 in1015.9 mb 0.00 in0.0 mm 0.00 in0.0 mm 0.00 in0.0 mm
09:40 AM 29.1°F-1.6°C 24.0°F-4.4°C 81% Calm Calm 0.7 mph1.1 kmh 29.99 in1015.6 mb 0.00 in0.0 mm 0.00 in0.0 mm 0.00 in0.0 mm
09:30 AM 28.2°F-2.1°C 23.1°F-4.9°C 81% Calm Calm 0.7 mph1.1 kmh 29.99 in1015.6 mb 0.00 in0.0 mm 0.00 in0.0 mm 0.00 in0.0 mm
09:20 AM 27.3°F-2.6°C 22.0°F-5.6°C 80% Calm Calm -- 29.99 in1015.6 mb 0.00 in0.0 mm 0.00 in0.0 mm 0.00 in0.0 mm
09:10 AM 26.4°F-3.1°C 21.1°F-6.1°C 80% Calm Calm -- 29.98 in1015.2 mb 0.00 in0.0 mm 0.00 in0.0 mm 0.00 in0.0 mm
09:00 AM 26.1°F-3.3°C 20.7°F-6.3°C 80% Calm Calm 0.7 mph1.1 kmh 29.98 in1015.2 mb 0.00 in0.0 mm 0.00 in0.0 mm 0.00 in0.0 mm
08:50 AM 25.5°F-3.6°C 20.2°F-6.6°C 80% Calm Calm 0.7 mph1.1 kmh 29.97 in1014.9 mb 0.00 in0.0 mm 0.00 in0.0 mm 0.00 in0.0 mm
08:40 AM 25.2°F-3.8°C 19.9°F-6.7°C 80% Calm Calm -- 29.96 in1014.6 mb 0.00 in0.0 mm 0.00 in0.0 mm 0.00 in0.0 mm
08:30 AM 25.3°F-3.7°C 20.0°F-6.7°C 80% Calm Calm -- 29.96 in1014.6 mb 0.00 in0.0 mm 0.00 in0.0 mm 0.00 in0.0 mm
08:20 AM 25.7°F-3.5°C 20.4°F-6.4°C 80% Calm Calm -- 29.96 in1014.6 mb 0.00 in0.0 mm 0.00 in0.0 mm 0.00 in0.0 mm
08:10 AM 25.9°F-3.4°C 20.6°F-6.3°C 80% Calm Calm -- 29.95 in1014.2 mb 0.00 in0.0 mm 0.00 in0.0 mm 0.00 in0.0 mm
08:00 AM 25.7°F-3.5°C 20.4°F-6.4°C 80% Calm Calm 0.7 mph1.1 kmh 29.95 in1014.2 mb 0.00 in0.0 mm 0.00 in0.0 mm 0.00 in0.0 mm
07:50 AM 25.9°F-3.4°C 20.3°F-6.5°C 79% Calm Calm 0.7 mph1.1 kmh 29.95 in1014.2 mb 0.00 in0.0 mm 0.00 in0.0 mm 0.00 in0.0 mm
07:40 AM 25.9°F-3.4°C 20.3°F-6.5°C 79% Calm Calm 0.7 mph1.1 kmh 29.94 in1013.9 mb 0.00 in0.0 mm 0.00 in0.0 mm 0.00 in0.0 mm
07:30 AM 25.9°F-3.4°C 20.3°F-6.5°C 79% 0.1 mph NE0.2 kmh NE 0.7 mph1.1 kmh 29.93 in1013.5 mb 0.00 in0.0 mm 0.00 in0.0 mm 0.00 in0.0 mm
07:20 AM 26.1°F-3.3°C 20.4°F-6.4°C 79% Calm Calm 0.7 mph1.1 kmh 29.94 in1013.9 mb 0.00 in0.0 mm 0.00 in0.0 mm 0.00 in0.0 mm
07:10 AM 25.9°F-3.4°C 20.0°F-6.7°C 78% Calm Calm -- 29.93 in1013.5 mb 0.00 in0.0 mm 0.00 in0.0 mm 0.00 in0.0 mm
07:00 AM 26.1°F-3.3°C 20.1°F-6.6°C 78% Calm Calm -- 29.93 in1013.5 mb 0.00 in0.0 mm 0.00 in0.0 mm 0.00 in0.0 mm
06:50 AM 26.6°F-3.0°C 21.0°F-6.1°C 79% Calm Calm -- 29.92 in1013.2 mb 0.00 in0.0 mm 0.00 in0.0 mm 0.00 in0.0 mm
06:40 AM 26.8°F-2.9°C 21.1°F-6.1°C 79% Calm Calm -- 29.92 in1013.2 mb 0.00 in0.0 mm 0.00 in0.0 mm 0.00 in0.0 mm
06:30 AM 26.8°F-2.9°C 20.8°F-6.2°C 78% Calm Calm -- 29.92 in1013.2 mb 0.00 in0.0 mm 0.00 in0.0 mm 0.00 in0.0 mm
06:20 AM 27.0°F-2.8°C 21.0°F-6.1°C 78% Calm Calm -- 29.91 in1012.9 mb 0.00 in0.0 mm 0.00 in0.0 mm 0.00 in0.0 mm
06:10 AM 27.1°F-2.7°C 21.2°F-6.0°C 78% Calm Calm -- 29.91 in1012.9 mb 0.00 in0.0 mm 0.00 in0.0 mm 0.00 in0.0 mm
06:00 AM 27.3°F-2.6°C 21.4°F-5.9°C 78% Calm Calm -- 29.91 in1012.9 mb 0.00 in0.0 mm 0.00 in0.0 mm 0.00 in0.0 mm
05:50 AM 27.3°F-2.6°C 21.4°F-5.9°C 78% Calm Calm -- 29.90 in1012.5 mb 0.00 in0.0 mm 0.00 in0.0 mm 0.00 in0.0 mm
05:40 AM 27.5°F-2.5°C 21.5°F-5.8°C 78% Calm Calm -- 29.90 in1012.5 mb 0.00 in0.0 mm 0.00 in0.0 mm 0.00 in0.0 mm
05:30 AM 27.7°F-2.4°C 21.7°F-5.7°C 78% Calm Calm -- 29.90 in1012.5 mb 0.00 in0.0 mm 0.00 in0.0 mm 0.00 in0.0 mm
05:20 AM 27.9°F-2.3°C 21.9°F-5.6°C 78% Calm Calm -- 29.89 in1012.2 mb 0.00 in0.0 mm 0.00 in0.0 mm 0.00 in0.0 mm
05:10 AM 27.9°F-2.3°C 21.9°F-5.6°C 78% Calm Calm -- 29.90 in1012.5 mb 0.00 in0.0 mm 0.00 in0.0 mm 0.00 in0.0 mm
05:00 AM 27.9°F-2.3°C 21.6°F-5.8°C 77% Calm Calm -- 29.89 in1012.2 mb 0.00 in0.0 mm 0.00 in0.0 mm 0.00 in0.0 mm
04:50 AM 28.0°F-2.2°C 21.8°F-5.7°C 77% Calm Calm -- 29.89 in1012.2 mb 0.00 in0.0 mm 0.00 in0.0 mm 0.00 in0.0 mm
04:40 AM 28.6°F-1.9°C 22.3°F-5.4°C 77% Calm Calm -- 29.89 in1012.2 mb 0.00 in0.0 mm 0.00 in0.0 mm 0.00 in0.0 mm
04:30 AM 28.6°F-1.9°C 22.3°F-5.4°C 77% Calm Calm -- 29.89 in1012.2 mb 0.00 in0.0 mm 0.00 in0.0 mm 0.00 in0.0 mm
04:20 AM 28.8°F-1.8°C 22.5°F-5.3°C 77% Calm Calm -- 29.89 in1012.2 mb 0.00 in0.0 mm 0.00 in0.0 mm 0.00 in0.0 mm
04:10 AM 29.5°F-1.4°C 23.2°F-4.9°C 77% Calm Calm -- 29.89 in1012.2 mb 0.00 in0.0 mm 0.00 in0.0 mm 0.00 in0.0 mm
04:00 AM 30.2°F-1.0°C 24.2°F-4.3°C 78% Calm Calm -- 29.89 in1012.2 mb 0.00 in0.0 mm 0.00 in0.0 mm 0.00 in0.0 mm
03:50 AM 30.7°F-0.7°C 24.7°F-4.1°C 78% Calm Calm -- 29.89 in1012.2 mb 0.00 in0.0 mm 0.00 in0.0 mm 0.00 in0.0 mm
03:40 AM 31.1°F-0.5°C 25.0°F-3.9°C 78% Calm Calm -- 29.88 in1011.9 mb 0.00 in0.0 mm 0.00 in0.0 mm 0.00 in0.0 mm
03:30 AM 31.6°F-0.2°C 25.6°F-3.6°C 78% Calm Calm -- 29.89 in1012.2 mb 0.00 in0.0 mm 0.00 in0.0 mm 0.00 in0.0 mm
03:20 AM 32.5°F0.3°C 26.7°F-2.9°C 79% Calm Calm -- 29.88 in1011.9 mb 0.00 in0.0 mm 0.00 in0.0 mm 0.00 in0.0 mm
03:10 AM 32.5°F0.3°C 26.7°F-2.9°C 79% Calm Calm -- 29.88 in1011.9 mb 0.00 in0.0 mm 0.00 in0.0 mm 0.00 in0.0 mm
03:00 AM 32.5°F0.3°C 26.7°F-2.9°C 79% Calm Calm -- 29.89 in1012.2 mb 0.00 in0.0 mm 0.00 in0.0 mm 0.00 in0.0 mm
02:50 AM 33.1°F0.6°C 27.3°F-2.6°C 79% Calm Calm -- 29.89 in1012.2 mb 0.00 in0.0 mm 0.00 in0.0 mm 0.00 in0.0 mm
02:40 AM 33.3°F0.7°C 27.5°F-2.5°C 79% Calm Calm -- 29.88 in1011.9 mb 0.00 in0.0 mm 0.00 in0.0 mm 0.00 in0.0 mm
02:30 AM 33.8°F1.0°C 28.0°F-2.2°C 79% Calm Calm 0.7 mph1.1 kmh 29.88 in1011.9 mb 0.00 in0.0 mm 0.00 in0.0 mm 0.00 in0.0 mm
02:20 AM 33.8°F1.0°C 28.0°F-2.2°C 79% Calm Calm -- 29.88 in1011.9 mb 0.00 in0.0 mm 0.00 in0.0 mm 0.00 in0.0 mm
02:10 AM 33.6°F0.9°C 27.8°F-2.3°C 79% Calm Calm 0.7 mph1.1 kmh 29.87 in1011.5 mb 0.00 in0.0 mm 0.00 in0.0 mm 0.00 in0.0 mm
02:00 AM 33.6°F0.9°C 27.8°F-2.3°C 79% Calm Calm -- 29.87 in1011.5 mb 0.00 in0.0 mm 0.00 in0.0 mm 0.00 in0.0 mm
01:50 AM 33.8°F1.0°C 28.0°F-2.2°C 79% Calm Calm 0.7 mph1.1 kmh 29.87 in1011.5 mb 0.00 in0.0 mm 0.00 in0.0 mm 0.00 in0.0 mm
01:40 AM 34.2°F1.2°C 28.3°F-2.1°C 79% 0.2 mph SE0.3 kmh SE 1.7 mph2.7 kmh 29.86 in1011.2 mb 0.00 in0.0 mm 0.00 in0.0 mm 0.00 in0.0 mm
01:30 AM 34.5°F1.4°C 28.7°F-1.8°C 79% 2.5 mph S4.0 kmh S 3.4 mph5.5 kmh 29.86 in1011.2 mb 0.00 in0.0 mm 0.00 in0.0 mm 0.00 in0.0 mm
01:20 AM 34.2°F1.2°C 28.3°F-2.1°C 79% 0.7 mph SSE1.1 kmh SSE 3.4 mph5.5 kmh 29.86 in1011.2 mb 0.00 in0.0 mm 0.00 in0.0 mm 0.00 in0.0 mm
01:10 AM 34.2°F1.2°C 28.0°F-2.2°C 78% 0.4 mph S0.6 kmh S 3.4 mph5.5 kmh 29.86 in1011.2 mb 0.00 in0.0 mm 0.00 in0.0 mm 0.00 in0.0 mm
01:00 AM 34.2°F1.2°C 28.0°F-2.2°C 78% 0.4 mph SE0.6 kmh SE 1.7 mph2.7 kmh 29.86 in1011.2 mb 0.00 in0.0 mm 0.00 in0.0 mm 0.00 in0.0 mm
12:50 AM 34.3°F1.3°C 28.2°F-2.1°C 78% 0.9 mph SE1.4 kmh SE 2.5 mph4.0 kmh 29.86 in1011.2 mb 0.00 in0.0 mm 0.00 in0.0 mm 0.00 in0.0 mm
12:40 AM 34.3°F1.3°C 28.2°F-2.1°C 78% 0.5 mph SSE0.8 kmh SSE 2.5 mph4.0 kmh 29.86 in1011.2 mb 0.00 in0.0 mm 0.00 in0.0 mm 0.00 in0.0 mm
12:30 AM 34.7°F1.5°C 28.5°F-1.9°C 78% 0.1 mph NW0.2 kmh NW 1.7 mph2.7 kmh 29.86 in1011.2 mb 0.00 in0.0 mm 0.00 in0.0 mm 0.00 in0.0 mm
12:20 AM 34.5°F1.4°C 28.1°F-2.2°C 77% 0.7 mph S1.1 kmh S 3.4 mph5.5 kmh 29.86 in1011.2 mb 0.00 in0.0 mm 0.00 in0.0 mm 0.00 in0.0 mm
12:10 AM 34.7°F1.5°C 28.2°F-2.1°C 77% 0.7 mph S1.1 kmh S 2.5 mph4.0 kmh 29.86 in1011.2 mb 0.00 in0.0 mm 0.00 in0.0 mm 0.00 in0.0 mm
12:00 AM 34.9°F1.6°C 28.4°F-2.0°C 77% 0.4 mph ESE0.6 kmh ESE 1.7 mph2.7 kmh 29.86 in1011.2 mb 0.00 in0.0 mm 0.00 in0.0 mm 0.00 in0.0 mm